createdAt,value
2019-05-16T00:04:01.649Z,3.00
2019-05-16T00:08:05.890Z,2.40
2019-05-16T00:12:10.095Z,3.03
2019-05-16T00:16:14.376Z,2.83
2019-05-16T00:20:19.214Z,3.83
2019-05-16T00:24:23.497Z,2.20
2019-05-16T00:28:28.603Z,1.87
2019-05-16T00:32:32.996Z,2.43
2019-05-16T00:36:38.253Z,2.73
2019-05-16T00:40:42.533Z,1.10
2019-05-16T00:44:47.922Z,2.20
2019-05-16T00:48:52.367Z,4.37
2019-05-16T00:52:58.730Z,2.10
2019-05-16T00:57:03.964Z,1.40
2019-05-16T01:01:08.636Z,1.10
2019-05-16T01:05:14.579Z,1.97
2019-05-16T01:09:19.002Z,2.83
2019-05-16T01:13:23.244Z,3.77
2019-05-16T01:17:28.305Z,1.57
2019-05-16T01:21:32.689Z,3.07
2019-05-16T01:25:38.789Z,3.67
2019-05-16T01:29:42.860Z,3.80
2019-05-16T01:33:47.887Z,3.87
2019-05-16T01:37:52.163Z,2.73
2019-05-16T01:41:58.524Z,1.93
2019-05-16T01:46:02.300Z,2.53
2019-05-16T01:50:08.719Z,2.63
2019-05-16T01:54:12.669Z,4.17
2019-05-16T01:58:19.822Z,2.47
2019-05-16T02:02:22.960Z,5.57
2019-05-16T02:06:28.764Z,1.67
2019-05-16T02:10:33.126Z,2.70
2019-05-16T02:14:38.809Z,3.17
2019-05-16T02:18:43.079Z,2.23
2019-05-16T02:22:48.244Z,3.90
2019-05-16T02:26:52.623Z,5.90
2019-05-16T02:30:56.919Z,1.57
2019-05-16T02:35:01.503Z,2.07
2019-05-16T02:39:06.989Z,2.40
2019-05-16T02:43:12.477Z,2.73
2019-05-16T02:47:16.923Z,3.07
2019-05-16T02:51:21.534Z,3.20
2019-05-16T02:55:25.980Z,2.33
2019-05-16T02:59:30.848Z,2.30
2019-05-16T03:03:35.707Z,1.70
2019-05-16T03:07:46.493Z,5.67
2019-05-16T03:11:51.010Z,2.03
2019-05-16T03:16:00.478Z,2.00
2019-05-16T03:20:03.389Z,4.53
2019-05-16T03:24:07.613Z,1.33
2019-05-16T03:28:11.809Z,2.53
2019-05-16T03:32:16.044Z,2.43
2019-05-16T03:36:25.257Z,2.07
2019-05-16T03:40:31.057Z,3.10
2019-05-16T03:44:33.472Z,5.43
2019-05-16T03:48:40.671Z,1.93
2019-05-16T03:52:44.067Z,4.10
2019-05-16T03:56:51.189Z,2.50
2019-05-16T04:00:55.384Z,3.63
2019-05-16T04:05:02.008Z,2.73
2019-05-16T04:09:07.576Z,2.50
2019-05-16T04:13:11.894Z,3.73
2019-05-16T04:17:16.187Z,3.03
2019-05-16T04:21:21.868Z,5.20
2019-05-16T04:25:26.418Z,4.20
2019-05-16T04:29:31.567Z,3.50
2019-05-16T04:33:36.197Z,3.90
2019-05-16T04:37:42.360Z,5.13
2019-05-16T04:41:46.348Z,7.03
2019-05-16T04:45:52.168Z,7.53
2019-05-16T04:49:56.557Z,3.37
2019-05-16T04:54:01.986Z,2.13
2019-05-16T04:58:06.649Z,4.43
2019-05-16T05:02:12.252Z,1.93
2019-05-16T05:06:16.904Z,3.73
2019-05-16T05:10:21.145Z,1.43
2019-05-16T05:14:25.338Z,1.73
2019-05-16T05:18:30.230Z,1.63
2019-05-16T05:22:34.806Z,3.43
2019-05-16T05:26:41.119Z,4.40
2019-05-16T05:30:45.584Z,2.00
2019-05-16T05:34:50.337Z,2.83
2019-05-16T05:39:07.887Z,1.60
2019-05-16T05:43:00.685Z,4.27
2019-05-16T05:47:04.951Z,2.87
2019-05-16T05:51:11.232Z,3.83
2019-05-16T05:55:15.005Z,2.53
2019-05-16T05:59:20.106Z,2.73
2019-05-16T06:03:24.565Z,1.90
2019-05-16T06:07:30.023Z,7.43
2019-05-16T06:11:34.388Z,3.53
2019-05-16T06:15:39.994Z,1.43
2019-05-16T06:19:44.308Z,3.70
2019-05-16T06:23:50.908Z,3.83
2019-05-16T06:27:54.468Z,2.40
2019-05-16T06:32:00.183Z,3.63
2019-05-16T06:36:04.480Z,1.67
2019-05-16T06:40:10.740Z,4.10
2019-05-16T06:48:39.907Z,2.40
2019-05-16T06:52:45.852Z,1.53
2019-05-16T06:56:50.948Z,3.37
2019-05-16T07:00:55.331Z,3.83
2019-05-16T07:05:01.163Z,3.63
2019-05-16T07:09:07.093Z,2.93
2019-05-16T07:13:11.352Z,4.17
2019-05-16T07:17:15.680Z,1.70
2019-05-16T07:21:20.290Z,1.90
2019-05-16T07:25:24.612Z,3.00
2019-05-16T07:29:30.863Z,2.80
2019-05-16T07:33:34.839Z,3.13
2019-05-16T07:37:40.043Z,1.43
2019-05-16T07:41:44.326Z,2.23
2019-05-16T07:45:50.899Z,2.40
2019-05-16T07:49:54.491Z,2.07
2019-05-16T07:53:59.799Z,1.73
2019-05-16T07:58:04.024Z,2.43
2019-05-16T08:02:10.788Z,2.20
2019-05-16T08:06:14.095Z,1.57
2019-05-16T08:10:35.922Z,4.90
2019-05-16T08:14:24.261Z,6.13
2019-05-16T08:18:30.250Z,2.97
2019-05-16T08:22:34.320Z,2.07
2019-05-16T08:26:42.490Z,3.50
2019-05-16T08:30:44.458Z,1.90
2019-05-16T08:34:51.377Z,1.37
2019-05-16T08:38:54.541Z,1.90
2019-05-16T08:43:00.423Z,1.70
2019-05-16T08:47:06.394Z,4.73
2019-05-16T08:51:12.203Z,1.47
2019-05-16T08:55:16.797Z,5.47
2019-05-16T08:59:21.684Z,4.00
2019-05-16T09:03:25.981Z,3.30
2019-05-16T09:07:31.848Z,5.00
2019-05-16T09:11:43.547Z,2.70
2019-05-16T09:15:42.057Z,6.57
2019-05-16T09:19:47.154Z,2.00
2019-05-16T09:23:51.469Z,2.63
2019-05-16T09:27:56.900Z,4.13
2019-05-16T09:32:15.703Z,2.77
2019-05-16T09:36:08.049Z,3.37
2019-05-16T09:40:12.855Z,2.43
2019-05-16T09:44:18.267Z,3.40
2019-05-16T09:48:22.812Z,2.30
2019-05-16T09:52:27.470Z,5.07
2019-05-16T09:56:31.873Z,2.03
2019-05-16T10:00:37.404Z,2.73
2019-05-16T10:04:41.790Z,2.63
2019-05-16T10:08:46.445Z,4.80
2019-05-16T10:12:50.835Z,4.00
2019-05-16T10:16:57.717Z,5.37
2019-05-16T10:21:01.041Z,2.30
2019-05-16T10:25:05.533Z,2.80
2019-05-16T10:29:10.901Z,2.50
2019-05-16T10:33:18.785Z,2.07
2019-05-16T10:37:21.245Z,2.30
2019-05-16T10:41:25.471Z,2.73
2019-05-16T10:45:29.711Z,2.40
2019-05-16T10:49:37.898Z,3.20
2019-05-16T10:54:04.346Z,2.77
2019-05-16T10:57:47.495Z,3.33
2019-05-16T11:01:51.540Z,2.17
2019-05-16T11:06:03.019Z,5.50
2019-05-16T11:10:03.497Z,5.07
2019-05-16T11:14:09.363Z,3.53
2019-05-16T11:18:13.371Z,4.50
2019-05-16T11:22:17.579Z,5.03
2019-05-16T11:26:21.779Z,7.97
2019-05-16T11:30:28.004Z,5.37
2019-05-16T11:34:31.897Z,5.57
2019-05-16T11:38:37.830Z,3.40
2019-05-16T11:42:42.017Z,5.40
2019-05-16T11:46:49.215Z,3.20
2019-05-16T11:50:52.222Z,4.53
2019-05-16T11:54:57.155Z,3.30
2019-05-16T11:59:01.580Z,4.80
2019-05-16T12:03:05.781Z,4.37
2019-05-16T12:07:10.001Z,4.10
2019-05-16T12:11:14.180Z,3.40
2019-05-16T12:15:20.117Z,5.90
2019-05-16T12:19:33.303Z,3.23
2019-05-16T12:23:30.391Z,3.70
2019-05-16T12:27:41.698Z,4.73
2019-05-16T12:31:54.133Z,4.83
2019-05-16T12:35:47.459Z,3.20
2019-05-16T12:39:51.978Z,4.47
2019-05-16T12:43:57.739Z,5.43
2019-05-16T12:48:02.098Z,5.10
2019-05-16T12:52:06.792Z,3.80
2019-05-16T12:56:11.215Z,4.70
2019-05-16T13:00:19.054Z,3.87
2019-05-16T13:04:23.579Z,5.83
2019-05-16T13:08:27.796Z,5.13
2019-05-16T13:12:31.995Z,4.93
2019-05-16T13:16:37.588Z,5.43
2019-05-16T13:20:41.926Z,4.80
2019-05-16T13:24:47.928Z,5.13
2019-05-16T13:28:52.027Z,6.90
2019-05-16T13:32:56.517Z,5.47
2019-05-16T13:37:00.987Z,6.20
2019-05-16T13:41:07.381Z,9.40
2019-05-16T13:45:11.497Z,6.10
2019-05-16T13:49:17.925Z,4.90
2019-05-16T13:53:21.555Z,5.43
2019-05-16T13:57:28.345Z,6.83
2019-05-16T14:01:31.776Z,5.07
2019-05-16T14:05:38.014Z,5.10
2019-05-16T14:09:42.003Z,5.33
2019-05-16T14:13:46.949Z,9.50
2019-05-16T14:17:51.411Z,6.20
2019-05-16T14:21:56.968Z,6.50
2019-05-16T14:26:01.404Z,7.43
2019-05-16T14:30:07.536Z,7.87
2019-05-16T14:34:11.892Z,6.43
2019-05-16T14:38:17.701Z,7.07
2019-05-16T14:42:22.144Z,6.77
2019-05-16T14:46:27.495Z,7.10
2019-05-16T14:50:32.603Z,7.07
2019-05-16T14:54:37.797Z,7.93
2019-05-16T14:58:42.123Z,9.20
2019-05-16T15:02:48.031Z,8.17
2019-05-16T15:06:52.217Z,6.33
2019-05-16T15:10:57.402Z,6.33
2019-05-16T15:15:16.057Z,6.13
2019-05-16T15:19:08.202Z,9.20
2019-05-16T15:23:12.792Z,6.63
2019-05-16T15:27:17.199Z,6.20
2019-05-16T15:31:21.421Z,5.90
2019-05-16T15:35:27.407Z,5.20
2019-05-16T15:39:31.488Z,9.60
2019-05-16T15:43:36.869Z,6.93
2019-05-16T15:47:41.361Z,10.13
2019-05-16T15:51:45.648Z,5.70
2019-05-16T15:55:53.456Z,6.10
2019-05-16T15:59:57.756Z,6.63
2019-05-16T16:04:02.014Z,7.80
2019-05-16T16:08:06.935Z,7.37
2019-05-16T16:12:11.324Z,9.77
2019-05-16T16:16:17.427Z,8.73
2019-05-16T16:20:21.407Z,8.90
2019-05-16T16:24:27.879Z,7.97
2019-05-16T16:28:31.482Z,11.80
2019-05-16T16:32:38.034Z,9.07
2019-05-16T16:36:41.741Z,11.93
2019-05-16T16:40:48.000Z,7.70
2019-05-16T16:44:51.825Z,8.37
2019-05-16T16:48:56.874Z,7.37
2019-05-16T16:53:01.225Z,10.73
2019-05-16T16:57:07.812Z,10.70
2019-05-16T17:01:11.371Z,9.10
2019-05-16T17:05:17.046Z,12.07
2019-05-16T17:09:21.372Z,9.47
2019-05-16T17:13:27.618Z,10.43
2019-05-16T17:17:31.593Z,8.40
2019-05-16T17:21:36.826Z,8.43
2019-05-16T17:25:41.288Z,10.33
2019-05-16T17:29:47.422Z,8.37
2019-05-16T17:33:51.431Z,12.50
2019-05-16T17:37:57.310Z,10.07
2019-05-16T17:42:01.554Z,8.73
2019-05-16T17:46:07.007Z,8.43
2019-05-16T17:50:12.118Z,10.20
2019-05-16T17:54:17.269Z,8.87
2019-05-16T17:58:21.770Z,10.30
2019-05-16T18:02:26.684Z,9.60
2019-05-16T18:06:31.084Z,9.20
2019-05-16T18:10:36.505Z,8.70
2019-05-16T18:14:40.911Z,9.53
2019-05-16T18:18:46.870Z,9.47
2019-05-16T18:22:51.200Z,10.70
2019-05-16T18:26:57.157Z,10.63
2019-05-16T18:31:01.544Z,11.43
2019-05-16T18:35:07.359Z,11.00
2019-05-16T18:39:11.707Z,10.23
2019-05-16T18:43:16.605Z,9.80
2019-05-16T18:47:20.983Z,10.10
2019-05-16T18:51:26.497Z,9.20
2019-05-16T18:55:30.855Z,10.33
2019-05-16T18:59:36.914Z,9.63
2019-05-16T19:03:40.997Z,9.87
2019-05-16T19:07:47.371Z,12.30
2019-05-16T19:11:51.088Z,10.33
2019-05-16T19:15:57.174Z,11.30
2019-05-16T19:20:01.179Z,10.57
2019-05-16T19:24:06.962Z,10.27
2019-05-16T19:28:11.291Z,12.70
2019-05-16T19:32:17.236Z,10.57
2019-05-16T19:36:21.660Z,11.97
2019-05-16T19:40:25.875Z,10.80
2019-05-16T19:44:30.105Z,9.93
2019-05-16T19:48:34.336Z,10.60
2019-05-16T19:52:38.557Z,10.53
2019-05-16T19:56:42.779Z,11.00
2019-05-16T20:00:46.996Z,14.10
2019-05-16T20:04:51.243Z,12.40
2019-05-16T20:08:55.609Z,13.30
2019-05-16T20:12:59.880Z,12.50
2019-05-16T20:17:04.225Z,13.07
2019-05-16T20:21:08.551Z,13.97
2019-05-16T20:25:12.863Z,13.20
2019-05-16T20:29:17.206Z,16.33
2019-05-16T20:33:21.451Z,14.60
2019-05-16T20:37:26.538Z,17.30
2019-05-16T20:41:30.835Z,14.97
2019-05-16T20:45:36.222Z,16.17
2019-05-16T20:49:41.134Z,16.43
2019-05-16T20:53:46.833Z,18.13
2019-05-16T20:57:51.252Z,18.07
2019-05-16T21:01:57.438Z,18.43
2019-05-16T21:06:01.445Z,17.03
2019-05-16T21:10:08.057Z,16.83
2019-05-16T21:14:12.765Z,17.57
2019-05-16T21:18:17.031Z,20.53
2019-05-16T21:22:21.280Z,20.00
2019-05-16T21:26:26.312Z,22.50
2019-05-16T21:30:30.615Z,20.03
2019-05-16T21:34:36.567Z,19.70
2019-05-16T21:38:40.938Z,22.10
2019-05-16T21:42:45.174Z,23.17
2019-05-16T21:46:49.602Z,25.10
2019-05-16T21:50:53.818Z,22.37
2019-05-16T21:54:58.044Z,23.50
2019-05-16T21:59:02.725Z,23.43
2019-05-16T22:03:07.085Z,28.73
2019-05-16T22:07:11.541Z,29.13
2019-05-16T22:11:17.220Z,24.90
2019-05-16T22:15:21.617Z,23.43
2019-05-16T22:19:27.080Z,27.57
2019-05-16T22:23:31.446Z,25.30
2019-05-16T22:27:35.675Z,27.40
2019-05-16T22:31:39.895Z,24.80
2019-05-16T22:35:46.453Z,29.10
2019-05-16T22:39:49.991Z,25.83
2019-05-16T22:43:54.295Z,27.30
2019-05-16T22:47:58.533Z,25.97
2019-05-16T22:52:02.740Z,29.03
2019-05-16T22:56:07.584Z,24.57
2019-05-16T23:00:14.336Z,27.53
2019-05-16T23:04:18.664Z,24.70
2019-05-16T23:08:22.879Z,29.23
2019-05-16T23:12:27.183Z,24.10
2019-05-16T23:16:31.489Z,25.87
2019-05-16T23:20:37.067Z,26.13
2019-05-16T23:24:41.429Z,24.33
2019-05-16T23:28:47.172Z,25.37
2019-05-16T23:32:51.553Z,24.90
2019-05-16T23:36:57.040Z,23.60
2019-05-16T23:41:01.370Z,24.27
2019-05-16T23:45:08.659Z,25.90
2019-05-16T23:49:12.455Z,29.40
2019-05-16T23:53:16.647Z,29.20
2019-05-16T23:57:20.877Z,24.33
